Crescent Park, Kentucky
Current Conditions -  °F | °C
As of 7:37 AM on Tuesday 27 Jan 2015 (Local Time) from KI69 Reporting Station
Overcast Overcast  
Wind Chill: 19°   Ceiling: 6000
Heat Index: 19°   Visibility: 10mi
Dew Point: 16°   Wind: 3mph
Humidity: 86%   Direction: 50°NE
Pressure: 30"   Gusts: NA
Location:  39.0279°N, 84.5635°W
Report Text: KI69 271237Z AUTO 05003KT 10SM BKN060 OVC070 M07/M09 A3000 RMK AO1
Loading
Personal Weather Stations






























Interactive Weather Map New forecast layout! Learn more

10-Day Weather Forecast

Advertisements
Track Severe Weather on mobile